sensor_id;sensor_type;location;lat;lon;timestamp;pressure;altitude;pressure_sealevel;temperature;humidity
55460;BME280;41326;45.302;-122.946;2024-02-28T00:00:58;101351.81;;;17.87;57.19
55460;BME280;41326;45.302;-122.946;2024-02-28T00:03:28;101346.27;;;17.88;57.23
55460;BME280;41326;45.302;-122.946;2024-02-28T00:05:59;101345.66;;;17.84;57.39
55460;BME280;41326;45.302;-122.946;2024-02-28T00:08:29;101346.09;;;17.86;57.27
55460;BME280;41326;45.302;-122.946;2024-02-28T00:10:59;101340.79;;;17.84;57.40
55460;BME280;41326;45.302;-122.946;2024-02-28T00:13:29;101337.83;;;17.81;57.59
55460;BME280;41326;45.302;-122.946;2024-02-28T00:15:59;101337.41;;;17.77;57.54
55460;BME280;41326;45.302;-122.946;2024-02-28T00:18:29;101332.98;;;17.73;57.57
55460;BME280;41326;45.302;-122.946;2024-02-28T00:20:59;101331.27;;;17.77;58.20
55460;BME280;41326;45.302;-122.946;2024-02-28T00:23:29;101320.89;;;17.81;58.38
55460;BME280;41326;45.302;-122.946;2024-02-28T00:25:59;101313.46;;;17.87;58.27
55460;BME280;41326;45.302;-122.946;2024-02-28T00:28:29;101310.12;;;17.88;57.84
55460;BME280;41326;45.302;-122.946;2024-02-28T00:30:59;101304.36;;;17.88;57.84
55460;BME280;41326;45.302;-122.946;2024-02-28T00:33:29;101305.72;;;17.88;57.71
55460;BME280;41326;45.302;-122.946;2024-02-28T00:36:00;101303.86;;;17.84;57.66
55460;BME280;41326;45.302;-122.946;2024-02-28T00:38:30;101295.21;;;17.80;57.55
55460;BME280;41326;45.302;-122.946;2024-02-28T00:41:00;101294.55;;;17.81;57.47
55460;BME280;41326;45.302;-122.946;2024-02-28T00:43:30;101299.01;;;17.91;57.13
55460;BME280;41326;45.302;-122.946;2024-02-28T00:46:01;101303.98;;;18.00;56.84
55460;BME280;41326;45.302;-122.946;2024-02-28T00:48:30;101302.64;;;18.15;56.37
55460;BME280;41326;45.302;-122.946;2024-02-28T00:51:01;101298.57;;;18.32;55.84
55460;BME280;41326;45.302;-122.946;2024-02-28T00:53:30;101299.89;;;18.54;55.19
55460;BME280;41326;45.302;-122.946;2024-02-28T00:56:01;101296.86;;;18.74;54.75
55460;BME280;41326;45.302;-122.946;2024-02-28T00:58:31;101294.94;;;18.93;54.21
55460;BME280;41326;45.302;-122.946;2024-02-28T01:01:01;101290.73;;;18.96;53.91
55460;BME280;41326;45.302;-122.946;2024-02-28T01:03:31;101289.39;;;18.98;53.85
55460;BME280;41326;45.302;-122.946;2024-02-28T01:06:01;101285.84;;;18.98;53.94
55460;BME280;41326;45.302;-122.946;2024-02-28T01:08:31;101288.29;;;19.03;53.92
55460;BME280;41326;45.302;-122.946;2024-02-28T01:11:01;101287.34;;;19.09;53.85
55460;BME280;41326;45.302;-122.946;2024-02-28T01:13:31;101283.47;;;19.22;53.48
55460;BME280;41326;45.302;-122.946;2024-02-28T01:16:01;101275.96;;;19.26;53.27
55460;BME280;41326;45.302;-122.946;2024-02-28T01:18:31;101267.34;;;19.21;53.39
55460;BME280;41326;45.302;-122.946;2024-02-28T01:21:02;101260.87;;;19.19;53.52
55460;BME280;41326;45.302;-122.946;2024-02-28T01:23:31;101266.12;;;19.17;53.83
55460;BME280;41326;45.302;-122.946;2024-02-28T01:26:02;101270.28;;;19.23;53.84
55460;BME280;41326;45.302;-122.946;2024-02-28T01:28:31;101270.25;;;19.37;53.60
55460;BME280;41326;45.302;-122.946;2024-02-28T01:31:02;101264.46;;;19.40;53.28
55460;BME280;41326;45.302;-122.946;2024-02-28T01:33:32;101258.94;;;19.40;53.26
55460;BME280;41326;45.302;-122.946;2024-02-28T01:36:02;101255.11;;;19.33;53.44
55460;BME280;41326;45.302;-122.946;2024-02-28T01:38:32;101251.25;;;19.28;53.68
55460;BME280;41326;45.302;-122.946;2024-02-28T01:41:02;101250.46;;;19.30;53.79
55460;BME280;41326;45.302;-122.946;2024-02-28T01:43:32;101251.58;;;19.36;53.77
55460;BME280;41326;45.302;-122.946;2024-02-28T01:46:05;101253.02;;;19.48;53.49
55460;BME280;41326;45.302;-122.946;2024-02-28T01:48:32;101250.51;;;19.58;53.15
55460;BME280;41326;45.302;-122.946;2024-02-28T01:51:03;101251.33;;;19.56;53.10
55460;BME280;41326;45.302;-122.946;2024-02-28T01:53:32;101254.73;;;19.54;53.17
55460;BME280;41326;45.302;-122.946;2024-02-28T01:56:03;101248.23;;;19.49;53.31
55460;BME280;41326;45.302;-122.946;2024-02-28T01:58:32;101244.36;;;19.42;53.57
55460;BME280;41326;45.302;-122.946;2024-02-28T02:01:03;101236.88;;;19.34;53.74
55460;BME280;41326;45.302;-122.946;2024-02-28T02:03:33;101238.90;;;19.34;53.95
55460;BME280;41326;45.302;-122.946;2024-02-28T02:06:03;101237.07;;;19.42;53.80
55460;BME280;41326;45.302;-122.946;2024-02-28T02:08:33;101241.41;;;19.53;53.58
55460;BME280;41326;45.302;-122.946;2024-02-28T02:11:03;101238.98;;;19.57;53.35
55460;BME280;41326;45.302;-122.946;2024-02-28T02:13:33;101235.99;;;19.55;53.42
55460;BME280;41326;45.302;-122.946;2024-02-28T02:16:03;101235.10;;;19.49;53.57
55460;BME280;41326;45.302;-122.946;2024-02-28T02:18:35;101234.31;;;19.44;53.73
55460;BME280;41326;45.302;-122.946;2024-02-28T02:21:05;101235.99;;;19.39;53.87
55460;BME280;41326;45.302;-122.946;2024-02-28T02:23:33;101231.58;;;19.33;54.08
55460;BME280;41326;45.302;-122.946;2024-02-28T02:26:04;101229.49;;;19.34;54.04
55460;BME280;41326;45.302;-122.946;2024-02-28T02:28:34;101228.14;;;19.33;54.05
55460;BME280;41326;45.302;-122.946;2024-02-28T02:31:04;101225.39;;;19.34;54.18
55460;BME280;41326;45.302;-122.946;2024-02-28T02:33:34;101221.28;;;19.34;54.29
55460;BME280;41326;45.302;-122.946;2024-02-28T02:36:05;101220.03;;;19.33;54.54
55460;BME280;41326;45.302;-122.946;2024-02-28T02:38:35;101219.17;;;19.32;54.95
55460;BME280;41326;45.302;-122.946;2024-02-28T02:41:05;101213.13;;;19.31;55.68
55460;BME280;41326;45.302;-122.946;2024-02-28T02:43:35;101206.90;;;19.29;56.66
55460;BME280;41326;45.302;-122.946;2024-02-28T02:46:06;101202.61;;;19.33;57.34
55460;BME280;41326;45.302;-122.946;2024-02-28T02:48:35;101200.86;;;19.39;57.94
55460;BME280;41326;45.302;-122.946;2024-02-28T02:51:06;101194.02;;;19.41;58.84
55460;BME280;41326;45.302;-122.946;2024-02-28T02:53:36;101191.85;;;19.43;59.45
55460;BME280;41326;45.302;-122.946;2024-02-28T02:56:06;101192.46;;;19.45;59.84
55460;BME280;41326;45.302;-122.946;2024-02-28T02:58:36;101192.72;;;19.44;61.00
55460;BME280;41326;45.302;-122.946;2024-02-28T03:01:06;101189.94;;;19.43;61.50
55460;BME280;41326;45.302;-122.946;2024-02-28T03:03:36;101188.82;;;19.40;62.22
55460;BME280;41326;45.302;-122.946;2024-02-28T03:06:07;101180.51;;;19.42;62.16
55460;BME280;41326;45.302;-122.946;2024-02-28T03:08:36;101176.40;;;19.43;61.93
55460;BME280;41326;45.302;-122.946;2024-02-28T03:11:06;101174.54;;;19.43;62.26
55460;BME280;41326;45.302;-122.946;2024-02-28T03:13:36;101172.87;;;19.42;62.72
55460;BME280;41326;45.302;-122.946;2024-02-28T03:16:07;101171.97;;;19.42;62.60
55460;BME280;41326;45.302;-122.946;2024-02-28T03:18:36;101160.10;;;19.45;62.39
55460;BME280;41326;45.302;-122.946;2024-02-28T03:21:07;101166.89;;;19.42;62.33
55460;BME280;41326;45.302;-122.946;2024-02-28T03:23:37;101167.95;;;19.39;62.23
55460;BME280;41326;45.302;-122.946;2024-02-28T03:26:07;101163.65;;;19.36;61.66
55460;BME280;41326;45.302;-122.946;2024-02-28T03:28:37;101155.28;;;19.36;61.16
55460;BME280;41326;45.302;-122.946;2024-02-28T03:31:07;101163.13;;;19.31;61.18
55460;BME280;41326;45.302;-122.946;2024-02-28T03:33:37;101159.52;;;19.31;61.04
55460;BME280;41326;45.302;-122.946;2024-02-28T03:36:07;101155.08;;;19.25;61.25
55460;BME280;41326;45.302;-122.946;2024-02-28T03:38:37;101152.22;;;19.24;61.29
55460;BME280;41326;45.302;-122.946;2024-02-28T03:41:07;101150.98;;;19.22;61.68
55460;BME280;41326;45.302;-122.946;2024-02-28T03:43:37;101152.11;;;19.18;61.61
55460;BME280;41326;45.302;-122.946;2024-02-28T03:46:08;101149.52;;;19.17;61.97
55460;BME280;41326;45.302;-122.946;2024-02-28T03:48:37;101144.15;;;19.18;62.27
55460;BME280;41326;45.302;-122.946;2024-02-28T03:51:07;101145.15;;;19.22;62.61
55460;BME280;41326;45.302;-122.946;2024-02-28T03:53:38;101142.44;;;19.27;62.47
55460;BME280;41326;45.302;-122.946;2024-02-28T03:56:08;101136.33;;;19.33;62.17
55460;BME280;41326;45.302;-122.946;2024-02-28T03:58:39;101133.69;;;19.33;62.09
55460;BME280;41326;45.302;-122.946;2024-02-28T04:01:08;101133.72;;;19.32;61.99
55460;BME280;41326;45.302;-122.946;2024-02-28T04:03:38;101130.14;;;19.34;61.85
55460;BME280;41326;45.302;-122.946;2024-02-28T04:06:08;101134.96;;;19.34;61.61
55460;BME280;41326;45.302;-122.946;2024-02-28T04:08:40;101138.82;;;19.34;61.40
55460;BME280;41326;45.302;-122.946;2024-02-28T04:11:08;101148.48;;;19.31;61.39
55460;BME280;41326;45.302;-122.946;2024-02-28T04:13:38;101142.89;;;19.27;61.57
55460;BME280;41326;45.302;-122.946;2024-02-28T04:16:09;101142.09;;;19.23;61.58
55460;BME280;41326;45.302;-122.946;2024-02-28T04:18:38;101133.89;;;19.19;61.56
55460;BME280;41326;45.302;-122.946;2024-02-28T04:21:08;101129.97;;;19.15;61.44
55460;BME280;41326;45.302;-122.946;2024-02-28T04:23:38;101127.77;;;19.12;61.34
55460;BME280;41326;45.302;-122.946;2024-02-28T04:26:09;101129.26;;;19.10;60.87
55460;BME280;41326;45.302;-122.946;2024-02-28T04:28:39;101133.99;;;19.06;60.68
55460;BME280;41326;45.302;-122.946;2024-02-28T04:31:09;101130.72;;;19.05;60.68
55460;BME280;41326;45.302;-122.946;2024-02-28T04:33:39;101132.10;;;19.02;60.73
55460;BME280;41326;45.302;-122.946;2024-02-28T04:36:09;101129.26;;;18.98;60.74
55460;BME280;41326;45.302;-122.946;2024-02-28T04:38:39;101133.25;;;18.98;60.73
55460;BME280;41326;45.302;-122.946;2024-02-28T04:41:09;101134.98;;;18.97;60.77
55460;BME280;41326;45.302;-122.946;2024-02-28T04:43:40;101133.19;;;18.95;60.82
55460;BME280;41326;45.302;-122.946;2024-02-28T04:46:10;101133.08;;;18.96;60.40
55460;BME280;41326;45.302;-122.946;2024-02-28T04:48:40;101136.12;;;18.96;60.20
55460;BME280;41326;45.302;-122.946;2024-02-28T04:51:10;101139.70;;;18.95;60.28
55460;BME280;41326;45.302;-122.946;2024-02-28T04:53:40;101140.13;;;18.99;60.59
55460;BME280;41326;45.302;-122.946;2024-02-28T04:56:10;101139.33;;;19.01;60.85
55460;BME280;41326;45.302;-122.946;2024-02-28T04:58:40;101140.78;;;19.01;60.90
55460;BME280;41326;45.302;-122.946;2024-02-28T05:01:10;101138.05;;;19.03;60.70
55460;BME280;41326;45.302;-122.946;2024-02-28T05:03:41;101137.19;;;19.09;60.40
55460;BME280;41326;45.302;-122.946;2024-02-28T05:06:11;101130.91;;;19.12;59.91
55460;BME280;41326;45.302;-122.946;2024-02-28T05:08:41;101128.48;;;19.14;59.54
55460;BME280;41326;45.302;-122.946;2024-02-28T05:11:11;101127.17;;;19.13;59.46
55460;BME280;41326;45.302;-122.946;2024-02-28T05:13:41;101127.25;;;19.11;59.43
55460;BME280;41326;45.302;-122.946;2024-02-28T05:16:15;101131.38;;;19.06;59.43
55460;BME280;41326;45.302;-122.946;2024-02-28T05:18:41;101126.54;;;19.03;59.40
55460;BME280;41326;45.302;-122.946;2024-02-28T05:21:11;101123.49;;;18.99;59.39
55460;BME280;41326;45.302;-122.946;2024-02-28T05:23:41;101120.18;;;18.94;59.47
55460;BME280;41326;45.302;-122.946;2024-02-28T05:26:12;101118.77;;;18.90;59.25
55460;BME280;41326;45.302;-122.946;2024-02-28T05:28:42;101114.37;;;18.85;59.12
55460;BME280;41326;45.302;-122.946;2024-02-28T05:31:21;101112.17;;;18.81;59.23
55460;BME280;41326;45.302;-122.946;2024-02-28T05:33:42;101110.51;;;18.76;59.32
55460;BME280;41326;45.302;-122.946;2024-02-28T05:36:12;101107.24;;;18.71;59.40
55460;BME280;41326;45.302;-122.946;2024-02-28T05:38:42;101105.71;;;18.64;59.53
55460;BME280;41326;45.302;-122.946;2024-02-28T05:41:12;101107.83;;;18.61;59.53
55460;BME280;41326;45.302;-122.946;2024-02-28T05:43:42;101102.77;;;18.57;59.54
55460;BME280;41326;45.302;-122.946;2024-02-28T05:46:13;101103.93;;;18.54;59.38
55460;BME280;41326;45.302;-122.946;2024-02-28T05:48:43;101103.25;;;18.47;59.38
55460;BME280;41326;45.302;-122.946;2024-02-28T05:51:13;101100.53;;;18.44;59.50
55460;BME280;41326;45.302;-122.946;2024-02-28T05:53:42;101099.54;;;18.44;59.47
55460;BME280;41326;45.302;-122.946;2024-02-28T05:56:12;101091.57;;;18.44;59.40
55460;BME280;41326;45.302;-122.946;2024-02-28T05:58:44;101087.80;;;18.41;59.41
55460;BME280;41326;45.302;-122.946;2024-02-28T06:01:14;101088.52;;;18.38;59.43
55460;BME280;41326;45.302;-122.946;2024-02-28T06:03:44;101084.22;;;18.35;59.48
55460;BME280;41326;45.302;-122.946;2024-02-28T06:06:13;101082.55;;;18.34;59.28
55460;BME280;41326;45.302;-122.946;2024-02-28T06:08:43;101077.48;;;18.31;59.19
55460;BME280;41326;45.302;-122.946;2024-02-28T06:11:13;101078.30;;;18.31;59.24
55460;BME280;41326;45.302;-122.946;2024-02-28T06:13:43;101073.38;;;18.30;59.22
55460;BME280;41326;45.302;-122.946;2024-02-28T06:16:15;101072.28;;;18.30;59.22
55460;BME280;41326;45.302;-122.946;2024-02-28T06:18:43;101068.11;;;18.27;59.30
55460;BME280;41326;45.302;-122.946;2024-02-28T06:21:14;101063.96;;;18.27;59.30
55460;BME280;41326;45.302;-122.946;2024-02-28T06:23:43;101057.12;;;18.27;59.37
55460;BME280;41326;45.302;-122.946;2024-02-28T06:26:13;101055.18;;;18.28;59.19
55460;BME280;41326;45.302;-122.946;2024-02-28T06:28:44;101053.02;;;18.22;59.31
55460;BME280;41326;45.302;-122.946;2024-02-28T06:31:15;101046.84;;;18.20;59.45
55460;BME280;41326;45.302;-122.946;2024-02-28T06:33:44;101035.87;;;18.14;59.76
55460;BME280;41326;45.302;-122.946;2024-02-28T06:36:13;101039.00;;;18.14;59.77
55460;BME280;41326;45.302;-122.946;2024-02-28T06:38:43;101034.02;;;18.12;59.87
55460;BME280;41326;45.302;-122.946;2024-02-28T06:41:14;101036.69;;;18.07;59.99
55460;BME280;41326;45.302;-122.946;2024-02-28T06:43:44;101032.80;;;18.04;60.11
55460;BME280;41326;45.302;-122.946;2024-02-28T06:46:14;101030.57;;;18.02;59.99
55460;BME280;41326;45.302;-122.946;2024-02-28T06:48:44;101034.26;;;17.98;59.93
55460;BME280;41326;45.302;-122.946;2024-02-28T06:51:16;101033.25;;;17.99;59.93
55460;BME280;41326;45.302;-122.946;2024-02-28T06:53:44;101034.20;;;18.02;59.93
55460;BME280;41326;45.302;-122.946;2024-02-28T06:56:14;101035.22;;;18.01;59.95
55460;BME280;41326;45.302;-122.946;2024-02-28T06:58:44;101029.62;;;17.97;60.02
55460;BME280;41326;45.302;-122.946;2024-02-28T07:01:14;101034.61;;;17.94;60.10
55460;BME280;41326;45.302;-122.946;2024-02-28T07:03:44;101034.39;;;17.92;60.17
55460;BME280;41326;45.302;-122.946;2024-02-28T07:06:14;101031.31;;;17.90;60.00
55460;BME280;41326;45.302;-122.946;2024-02-28T07:08:44;101025.57;;;17.85;59.92
55460;BME280;41326;45.302;-122.946;2024-02-28T07:11:15;101017.73;;;17.80;60.17
55460;BME280;41326;45.302;-122.946;2024-02-28T07:13:45;101016.09;;;17.77;60.33
55460;BME280;41326;45.302;-122.946;2024-02-28T07:16:15;101019.12;;;17.73;60.48
55460;BME280;41326;45.302;-122.946;2024-02-28T07:18:45;101011.92;;;17.72;60.54
55460;BME280;41326;45.302;-122.946;2024-02-28T07:21:15;101017.58;;;17.67;60.67
55460;BME280;41326;45.302;-122.946;2024-02-28T07:23:45;101011.26;;;17.66;60.70
55460;BME280;41326;45.302;-122.946;2024-02-28T07:26:16;101012.68;;;17.63;60.55
55460;BME280;41326;45.302;-122.946;2024-02-28T07:28:45;101016.76;;;17.62;60.40
55460;BME280;41326;45.302;-122.946;2024-02-28T07:31:16;101019.97;;;17.60;60.47
55460;BME280;41326;45.302;-122.946;2024-02-28T07:33:45;101013.81;;;17.60;60.59
55460;BME280;41326;45.302;-122.946;2024-02-28T07:36:15;101013.21;;;17.58;60.69
55460;BME280;41326;45.302;-122.946;2024-02-28T07:38:45;101011.57;;;17.57;60.71
55460;BME280;41326;45.302;-122.946;2024-02-28T07:41:15;101008.54;;;17.54;60.85
55460;BME280;41326;45.302;-122.946;2024-02-28T07:43:45;101005.47;;;17.54;60.84
55460;BME280;41326;45.302;-122.946;2024-02-28T07:46:16;101003.26;;;17.54;60.62
55460;BME280;41326;45.302;-122.946;2024-02-28T07:48:46;100999.76;;;17.56;60.39
55460;BME280;41326;45.302;-122.946;2024-02-28T07:51:16;100993.63;;;17.56;60.48
55460;BME280;41326;45.302;-122.946;2024-02-28T07:53:46;100990.87;;;17.60;60.38
55460;BME280;41326;45.302;-122.946;2024-02-28T07:56:17;100989.25;;;17.62;60.31
55460;BME280;41326;45.302;-122.946;2024-02-28T07:58:46;100988.12;;;17.60;60.48
55460;BME280;41326;45.302;-122.946;2024-02-28T08:01:16;100986.34;;;17.60;60.48
55460;BME280;41326;45.302;-122.946;2024-02-28T08:03:46;100988.58;;;17.58;60.57
55460;BME280;41326;45.302;-122.946;2024-02-28T08:06:16;100976.56;;;17.58;60.49
55460;BME280;41326;45.302;-122.946;2024-02-28T08:08:46;100978.26;;;17.55;60.46
55460;BME280;41326;45.302;-122.946;2024-02-28T08:11:16;100974.27;;;17.52;60.59
55460;BME280;41326;45.302;-122.946;2024-02-28T08:13:46;100973.09;;;17.50;60.76
55460;BME280;41326;45.302;-122.946;2024-02-28T08:16:16;100971.51;;;17.49;60.82
55460;BME280;41326;45.302;-122.946;2024-02-28T08:18:46;100972.13;;;17.49;60.84
55460;BME280;41326;45.302;-122.946;2024-02-28T08:21:16;100974.59;;;17.46;60.90
55460;BME280;41326;45.302;-122.946;2024-02-28T08:23:47;100968.85;;;17.45;60.96
55460;BME280;41326;45.302;-122.946;2024-02-28T08:26:17;100967.15;;;17.41;60.94
55460;BME280;41326;45.302;-122.946;2024-02-28T08:28:47;100971.64;;;17.42;60.83
55460;BME280;41326;45.302;-122.946;2024-02-28T08:31:17;100971.11;;;17.38;60.95
55460;BME280;41326;45.302;-122.946;2024-02-28T08:33:47;100971.88;;;17.38;60.96
55460;BME280;41326;45.302;-122.946;2024-02-28T08:36:17;100969.85;;;17.36;61.07
55460;BME280;41326;45.302;-122.946;2024-02-28T08:38:47;100969.24;;;17.34;61.15
55460;BME280;41326;45.302;-122.946;2024-02-28T08:41:17;100969.99;;;17.30;61.27
55460;BME280;41326;45.302;-122.946;2024-02-28T08:43:47;100967.37;;;17.31;61.27
55460;BME280;41326;45.302;-122.946;2024-02-28T08:46:18;100964.55;;;17.31;61.10
55460;BME280;41326;45.302;-122.946;2024-02-28T08:48:47;100966.38;;;17.30;60.98
55460;BME280;41326;45.302;-122.946;2024-02-28T08:51:17;100974.06;;;17.31;60.94
55460;BME280;41326;45.302;-122.946;2024-02-28T08:53:48;100968.41;;;17.34;60.88
55460;BME280;41326;45.302;-122.946;2024-02-28T08:56:17;100965.82;;;17.36;60.81
55460;BME280;41326;45.302;-122.946;2024-02-28T08:58:48;100962.16;;;17.33;60.86
55460;BME280;41326;45.302;-122.946;2024-02-28T09:01:24;100951.40;;;17.31;60.96
55460;BME280;41326;45.302;-122.946;2024-02-28T09:03:54;100956.26;;;17.29;61.08
55460;BME280;41326;45.302;-122.946;2024-02-28T09:06:25;100955.51;;;17.28;60.95
55460;BME280;41326;45.302;-122.946;2024-02-28T09:08:55;100953.97;;;17.28;60.82
55460;BME280;41326;45.302;-122.946;2024-02-28T09:11:25;100950.51;;;17.26;60.86
55460;BME280;41326;45.302;-122.946;2024-02-28T09:13:56;100949.42;;;17.24;60.96
55460;BME280;41326;45.302;-122.946;2024-02-28T09:16:26;100946.61;;;17.24;60.96
55460;BME280;41326;45.302;-122.946;2024-02-28T09:18:56;100944.99;;;17.21;61.10
55460;BME280;41326;45.302;-122.946;2024-02-28T09:21:26;100941.85;;;17.21;61.11
55460;BME280;41326;45.302;-122.946;2024-02-28T09:23:57;100933.89;;;17.21;61.11
55460;BME280;41326;45.302;-122.946;2024-02-28T09:26:27;100927.64;;;17.19;60.99
55460;BME280;41326;45.302;-122.946;2024-02-28T09:28:57;100922.53;;;17.19;60.87
55460;BME280;41326;45.302;-122.946;2024-02-28T09:31:27;100923.99;;;17.19;60.84
55460;BME280;41326;45.302;-122.946;2024-02-28T09:33:58;100925.68;;;17.19;60.90
55460;BME280;41326;45.302;-122.946;2024-02-28T09:36:28;100932.98;;;17.17;60.96
55460;BME280;41326;45.302;-122.946;2024-02-28T09:38:58;100934.05;;;17.12;61.11
55460;BME280;41326;45.302;-122.946;2024-02-28T09:41:28;100931.29;;;17.13;61.06
55460;BME280;41326;45.302;-122.946;2024-02-28T09:43:58;100927.83;;;17.12;61.11
55460;BME280;41326;45.302;-122.946;2024-02-28T09:46:29;100926.34;;;17.12;60.97
55460;BME280;41326;45.302;-122.946;2024-02-28T09:48:59;100923.97;;;17.10;60.92
55460;BME280;41326;45.302;-122.946;2024-02-28T09:51:29;100916.54;;;17.14;60.88
55460;BME280;41326;45.302;-122.946;2024-02-28T09:54:08;100914.79;;;17.18;60.87
55460;BME280;41326;45.302;-122.946;2024-02-28T09:56:29;100911.61;;;17.17;60.91
55460;BME280;41326;45.302;-122.946;2024-02-28T09:58:59;100912.58;;;17.14;61.04
55460;BME280;41326;45.302;-122.946;2024-02-28T10:01:29;100915.26;;;17.13;61.12
55460;BME280;41326;45.302;-122.946;2024-02-28T10:04:01;100909.35;;;17.11;61.22
55460;BME280;41326;45.302;-122.946;2024-02-28T10:06:30;100901.23;;;17.09;61.10
55460;BME280;41326;45.302;-122.946;2024-02-28T10:09:00;100901.06;;;17.06;61.05
55460;BME280;41326;45.302;-122.946;2024-02-28T10:11:30;100901.93;;;17.04;61.13
55460;BME280;41326;45.302;-122.946;2024-02-28T10:14:00;100890.56;;;17.03;61.21
55460;BME280;41326;45.302;-122.946;2024-02-28T10:16:30;100885.80;;;16.99;61.36
55460;BME280;41326;45.302;-122.946;2024-02-28T10:19:00;100886.08;;;16.98;61.34
55460;BME280;41326;45.302;-122.946;2024-02-28T10:21:31;100893.11;;;16.97;61.38
55460;BME280;41326;45.302;-122.946;2024-02-28T10:24:01;100889.15;;;16.96;61.39
55460;BME280;41326;45.302;-122.946;2024-02-28T10:26:31;100881.78;;;16.95;61.26
55460;BME280;41326;45.302;-122.946;2024-02-28T10:29:03;100886.42;;;16.95;61.11
55460;BME280;41326;45.302;-122.946;2024-02-28T10:31:33;100878.67;;;16.93;61.18
55460;BME280;41326;45.302;-122.946;2024-02-28T10:34:02;100872.40;;;16.92;61.23
55460;BME280;41326;45.302;-122.946;2024-02-28T10:36:33;100871.04;;;16.88;61.38
55460;BME280;41326;45.302;-122.946;2024-02-28T10:39:02;100868.48;;;16.88;61.39
55460;BME280;41326;45.302;-122.946;2024-02-28T10:41:32;100860.55;;;16.88;61.38
55460;BME280;41326;45.302;-122.946;2024-02-28T10:44:03;100858.07;;;16.88;61.39
55460;BME280;41326;45.302;-122.946;2024-02-28T10:46:33;100857.46;;;16.90;61.18
55460;BME280;41326;45.302;-122.946;2024-02-28T10:49:04;100861.58;;;16.92;60.97
55460;BME280;41326;45.302;-122.946;2024-02-28T10:51:35;100860.96;;;16.92;60.93
55460;BME280;41326;45.302;-122.946;2024-02-28T10:54:09;100847.28;;;16.95;60.87
55460;BME280;41326;45.302;-122.946;2024-02-28T10:56:34;100848.05;;;16.93;60.90
55460;BME280;41326;45.302;-122.946;2024-02-28T10:59:07;100843.27;;;16.91;60.95
55460;BME280;41326;45.302;-122.946;2024-02-28T11:01:35;100841.19;;;16.89;60.96
55460;BME280;41326;45.302;-122.946;2024-02-28T11:04:05;100838.17;;;16.87;61.02
55460;BME280;41326;45.302;-122.946;2024-02-28T11:06:34;100830.46;;;16.86;60.91
55460;BME280;41326;45.302;-122.946;2024-02-28T11:09:04;100829.46;;;16.84;60.86
55460;BME280;41326;45.302;-122.946;2024-02-28T11:11:34;100827.84;;;16.83;60.92
55460;BME280;41326;45.302;-122.946;2024-02-28T11:14:05;100824.67;;;16.82;60.98
55460;BME280;41326;45.302;-122.946;2024-02-28T11:16:35;100832.92;;;16.81;61.04
55460;BME280;41326;45.302;-122.946;2024-02-28T11:19:05;100831.68;;;16.76;61.17
55460;BME280;41326;45.302;-122.946;2024-02-28T11:21:36;100829.63;;;16.76;61.15
55460;BME280;41326;45.302;-122.946;2024-02-28T11:24:07;100829.74;;;16.78;61.08
55460;BME280;41326;45.302;-122.946;2024-02-28T11:26:36;100825.40;;;16.77;60.92
55460;BME280;41326;45.302;-122.946;2024-02-28T11:29:08;100817.79;;;16.75;60.88
55460;BME280;41326;45.302;-122.946;2024-02-28T11:31:37;100823.13;;;16.75;60.95
55460;BME280;41326;45.302;-122.946;2024-02-28T11:34:08;100815.90;;;16.75;60.99
55460;BME280;41326;45.302;-122.946;2024-02-28T11:36:38;100812.93;;;16.72;61.09
55460;BME280;41326;45.302;-122.946;2024-02-28T11:39:08;100809.84;;;16.72;61.07
55460;BME280;41326;45.302;-122.946;2024-02-28T11:41:38;100807.91;;;16.70;61.15
55460;BME280;41326;45.302;-122.946;2024-02-28T11:44:09;100803.39;;;16.69;61.12
55460;BME280;41326;45.302;-122.946;2024-02-28T11:46:43;100807.32;;;16.69;60.96
55460;BME280;41326;45.302;-122.946;2024-02-28T11:49:09;100802.66;;;16.69;60.89
55460;BME280;41326;45.302;-122.946;2024-02-28T11:51:41;100800.44;;;16.70;60.85
55460;BME280;41326;45.302;-122.946;2024-02-28T11:54:09;100792.52;;;16.74;60.81
55460;BME280;41326;45.302;-122.946;2024-02-28T11:56:39;100791.47;;;16.72;60.82
55460;BME280;41326;45.302;-122.946;2024-02-28T11:59:12;100791.37;;;16.68;60.90
55460;BME280;41326;45.302;-122.946;2024-02-28T12:01:41;100790.86;;;16.68;60.91
55460;BME280;41326;45.302;-122.946;2024-02-28T12:04:10;100787.07;;;16.69;60.89
55460;BME280;41326;45.302;-122.946;2024-02-28T12:06:41;100787.46;;;16.68;60.81
55460;BME280;41326;45.302;-122.946;2024-02-28T12:09:12;100774.23;;;16.66;60.75
55460;BME280;41326;45.302;-122.946;2024-02-28T12:11:41;100777.47;;;16.62;60.87
55460;BME280;41326;45.302;-122.946;2024-02-28T12:14:11;100772.72;;;16.63;60.86
55460;BME280;41326;45.302;-122.946;2024-02-28T12:16:40;100772.45;;;16.63;60.83
55460;BME280;41326;45.302;-122.946;2024-02-28T12:19:12;100768.71;;;16.60;60.90
55460;BME280;41326;45.302;-122.946;2024-02-28T12:21:41;100764.20;;;16.57;60.96
55460;BME280;41326;45.302;-122.946;2024-02-28T12:24:11;100760.39;;;16.57;60.92
55460;BME280;41326;45.302;-122.946;2024-02-28T12:26:41;100757.94;;;16.56;60.81
55460;BME280;41326;45.302;-122.946;2024-02-28T12:29:11;100754.44;;;16.55;60.78
55460;BME280;41326;45.302;-122.946;2024-02-28T12:31:41;100755.42;;;16.57;60.73
55460;BME280;41326;45.302;-122.946;2024-02-28T12:34:11;100748.02;;;16.55;60.78